sensor_id;sensor_type;location;lat;lon;timestamp;pressure;altitude;pressure_sealevel;temperature;humidity
69306;BME280;56427;51.580;4.656;2022-11-20T00:01:19;101284.34;;;-0.38;100.00
69306;BME280;56427;51.580;4.656;2022-11-20T00:03:49;101284.44;;;-0.41;100.00
69306;BME280;56427;51.580;4.656;2022-11-20T00:06:17;101278.97;;;-0.57;100.00
69306;BME280;56427;51.580;4.656;2022-11-20T00:08:43;101279.69;;;-0.53;100.00
69306;BME280;56427;51.580;4.656;2022-11-20T00:11:12;101267.38;;;-0.67;100.00
69306;BME280;56427;51.580;4.656;2022-11-20T00:13:37;101265.16;;;-0.79;100.00
69306;BME280;56427;51.580;4.656;2022-11-20T00:16:05;101266.44;;;-0.64;100.00
69306;BME280;56427;51.580;4.656;2022-11-20T00:18:32;101253.63;;;-0.91;100.00
69306;BME280;56427;51.580;4.656;2022-11-20T00:21:06;101275.22;;;-0.75;100.00
69306;BME280;56427;51.580;4.656;2022-11-20T00:23:32;101264.28;;;-0.78;100.00
69306;BME280;56427;51.580;4.656;2022-11-20T00:26:05;101271.56;;;-0.96;100.00
69306;BME280;56427;51.580;4.656;2022-11-20T00:28:31;101272.34;;;-1.23;100.00
69306;BME280;56427;51.580;4.656;2022-11-20T00:31:01;101260.56;;;-0.96;100.00
69306;BME280;56427;51.580;4.656;2022-11-20T00:33:27;101259.91;;;-1.03;100.00
69306;BME280;56427;51.580;4.656;2022-11-20T00:35:53;101262.31;;;-0.98;100.00
69306;BME280;56427;51.580;4.656;2022-11-20T00:38:18;101267.63;;;-1.06;100.00
69306;BME280;56427;51.580;4.656;2022-11-20T00:40:43;101271.78;;;-1.02;100.00
69306;BME280;56427;51.580;4.656;2022-11-20T00:43:09;101260.69;;;-1.32;100.00
69306;BME280;56427;51.580;4.656;2022-11-20T00:45:34;101252.97;;;-1.29;100.00
69306;BME280;56427;51.580;4.656;2022-11-20T00:47:59;101262.16;;;-1.23;100.00
69306;BME280;56427;51.580;4.656;2022-11-20T00:50:27;101279.25;;;-1.28;100.00
69306;BME280;56427;51.580;4.656;2022-11-20T00:52:52;101270.59;;;-1.21;100.00
69306;BME280;56427;51.580;4.656;2022-11-20T00:55:18;101263.56;;;-1.44;100.00
69306;BME280;56427;51.580;4.656;2022-11-20T00:57:43;101274.50;;;-1.41;100.00
69306;BME280;56427;51.580;4.656;2022-11-20T01:00:09;101277.34;;;-1.53;100.00
69306;BME280;56427;51.580;4.656;2022-11-20T01:02:40;101303.94;;;-1.31;100.00
69306;BME280;56427;51.580;4.656;2022-11-20T01:05:05;101286.47;;;-1.44;100.00
69306;BME280;56427;51.580;4.656;2022-11-20T01:07:31;101286.06;;;-1.29;100.00
69306;BME280;56427;51.580;4.656;2022-11-20T01:09:57;101299.56;;;-0.94;100.00
69306;BME280;56427;51.580;4.656;2022-11-20T01:12:22;101290.75;;;-0.82;100.00
69306;BME280;56427;51.580;4.656;2022-11-20T01:14:47;101278.19;;;-0.88;100.00
69306;BME280;56427;51.580;4.656;2022-11-20T01:18:31;101295.56;;;-0.43;100.00
69306;BME280;56427;51.580;4.656;2022-11-20T01:21:00;101291.72;;;-0.28;100.00
69306;BME280;56427;51.580;4.656;2022-11-20T01:23:30;101286.81;;;-0.06;100.00
69306;BME280;56427;51.580;4.656;2022-11-20T01:25:55;101291.22;;;-0.11;100.00
69306;BME280;56427;51.580;4.656;2022-11-20T01:28:21;101293.31;;;0.03;100.00
69306;BME280;56427;51.580;4.656;2022-11-20T01:30:48;101285.13;;;-0.07;100.00
69306;BME280;56427;51.580;4.656;2022-11-20T01:33:13;101283.94;;;0.03;100.00
69306;BME280;56427;51.580;4.656;2022-11-20T01:35:38;101292.81;;;-0.09;100.00
69306;BME280;56427;51.580;4.656;2022-11-20T01:38:04;101294.91;;;-0.22;100.00
69306;BME280;56427;51.580;4.656;2022-11-20T01:40:29;101286.91;;;-0.38;100.00
69306;BME280;56427;51.580;4.656;2022-11-20T01:43:09;101288.72;;;-0.13;100.00
69306;BME280;56427;51.580;4.656;2022-11-20T01:48:12;101275.50;;;-0.26;100.00
69306;BME280;56427;51.580;4.656;2022-11-20T01:50:38;101286.66;;;-0.30;100.00
69306;BME280;56427;51.580;4.656;2022-11-20T01:53:07;101279.97;;;-0.06;100.00
69306;BME280;56427;51.580;4.656;2022-11-20T01:55:36;101275.91;;;-0.11;100.00
69306;BME280;56427;51.580;4.656;2022-11-20T01:58:04;101284.06;;;0.00;100.00
69306;BME280;56427;51.580;4.656;2022-11-20T02:00:30;101288.19;;;-0.24;100.00
69306;BME280;56427;51.580;4.656;2022-11-20T02:02:58;101279.16;;;-0.06;100.00
69306;BME280;56427;51.580;4.656;2022-11-20T02:05:27;101272.31;;;-0.06;100.00
69306;BME280;56427;51.580;4.656;2022-11-20T02:07:54;101278.28;;;-0.07;100.00
69306;BME280;56427;51.580;4.656;2022-11-20T02:10:21;101266.06;;;-0.24;100.00
69306;BME280;56427;51.580;4.656;2022-11-20T02:12:46;101276.22;;;0.05;100.00
69306;BME280;56427;51.580;4.656;2022-11-20T02:15:33;101284.53;;;0.11;100.00
69306;BME280;56427;51.580;4.656;2022-11-20T02:17:58;101287.69;;;-0.35;100.00
69306;BME280;56427;51.580;4.656;2022-11-20T02:20:24;101287.56;;;-0.04;100.00
69306;BME280;56427;51.580;4.656;2022-11-20T02:25:36;101280.78;;;-0.05;100.00
69306;BME280;56427;51.580;4.656;2022-11-20T02:28:02;101284.78;;;0.04;100.00
69306;BME280;56427;51.580;4.656;2022-11-20T02:30:27;101275.50;;;0.01;100.00
69306;BME280;56427;51.580;4.656;2022-11-20T02:32:52;101272.75;;;0.07;100.00
69306;BME280;56427;51.580;4.656;2022-11-20T02:37:44;101271.75;;;0.11;100.00
69306;BME280;56427;51.580;4.656;2022-11-20T02:40:11;101265.03;;;0.35;100.00
69306;BME280;56427;51.580;4.656;2022-11-20T02:42:37;101265.50;;;0.22;100.00
69306;BME280;56427;51.580;4.656;2022-11-20T02:45:03;101265.75;;;0.39;100.00
69306;BME280;56427;51.580;4.656;2022-11-20T02:47:29;101264.69;;;0.20;100.00
69306;BME280;56427;51.580;4.656;2022-11-20T02:49:57;101258.22;;;0.09;100.00
69306;BME280;56427;51.580;4.656;2022-11-20T02:52:23;101245.94;;;0.21;100.00
69306;BME280;56427;51.580;4.656;2022-11-20T02:54:48;101247.78;;;0.42;100.00
69306;BME280;56427;51.580;4.656;2022-11-20T02:57:14;101233.28;;;0.17;100.00
69306;BME280;56427;51.580;4.656;2022-11-20T02:59:39;101245.06;;;0.22;100.00
69306;BME280;56427;51.580;4.656;2022-11-20T03:02:04;101259.00;;;0.11;100.00
69306;BME280;56427;51.580;4.656;2022-11-20T03:04:30;101247.53;;;-0.02;100.00
69306;BME280;56427;51.580;4.656;2022-11-20T03:06:55;101238.81;;;0.05;100.00
69306;BME280;56427;51.580;4.656;2022-11-20T03:09:21;101222.81;;;0.25;100.00
69306;BME280;56427;51.580;4.656;2022-11-20T03:11:46;101229.47;;;0.04;100.00
69306;BME280;56427;51.580;4.656;2022-11-20T03:14:12;101229.47;;;0.29;100.00
69306;BME280;56427;51.580;4.656;2022-11-20T03:16:37;101226.19;;;0.26;100.00
69306;BME280;56427;51.580;4.656;2022-11-20T03:19:03;101218.88;;;0.16;100.00
69306;BME280;56427;51.580;4.656;2022-11-20T03:21:28;101227.09;;;0.25;100.00
69306;BME280;56427;51.580;4.656;2022-11-20T03:23:54;101219.75;;;0.41;100.00
69306;BME280;56427;51.580;4.656;2022-11-20T03:26:22;101222.25;;;0.17;100.00
69306;BME280;56427;51.580;4.656;2022-11-20T03:28:55;101211.66;;;0.28;100.00
69306;BME280;56427;51.580;4.656;2022-11-20T03:31:25;101220.34;;;-0.03;100.00
69306;BME280;56427;51.580;4.656;2022-11-20T03:33:51;101221.78;;;0.31;100.00
69306;BME280;56427;51.580;4.656;2022-11-20T03:36:18;101209.09;;;0.28;100.00
69306;BME280;56427;51.580;4.656;2022-11-20T03:38:44;101206.09;;;0.42;100.00
69306;BME280;56427;51.580;4.656;2022-11-20T03:41:15;101196.25;;;0.31;100.00
69306;BME280;56427;51.580;4.656;2022-11-20T03:43:41;101195.72;;;0.70;100.00
69306;BME280;56427;51.580;4.656;2022-11-20T03:46:06;101210.25;;;0.44;100.00
69306;BME280;56427;51.580;4.656;2022-11-20T03:48:32;101206.19;;;0.39;100.00
69306;BME280;56427;51.580;4.656;2022-11-20T03:51:12;101204.41;;;0.41;100.00
69306;BME280;56427;51.580;4.656;2022-11-20T03:53:39;101209.22;;;0.50;100.00
69306;BME280;56427;51.580;4.656;2022-11-20T03:56:05;101200.69;;;0.26;100.00
69306;BME280;56427;51.580;4.656;2022-11-20T03:58:32;101201.19;;;0.10;100.00
69306;BME280;56427;51.580;4.656;2022-11-20T04:00:57;101192.44;;;0.17;100.00
69306;BME280;56427;51.580;4.656;2022-11-20T04:03:23;101199.47;;;0.36;100.00
69306;BME280;56427;51.580;4.656;2022-11-20T04:05:48;101192.81;;;0.07;100.00
69306;BME280;56427;51.580;4.656;2022-11-20T04:08:13;101194.75;;;0.25;100.00
69306;BME280;56427;51.580;4.656;2022-11-20T04:10:39;101185.25;;;0.29;100.00
69306;BME280;56427;51.580;4.656;2022-11-20T04:13:04;101185.41;;;0.24;100.00
69306;BME280;56427;51.580;4.656;2022-11-20T04:15:29;101176.53;;;0.34;100.00
69306;BME280;56427;51.580;4.656;2022-11-20T04:17:55;101166.97;;;0.16;100.00
69306;BME280;56427;51.580;4.656;2022-11-20T04:20:20;101167.81;;;0.16;100.00
69306;BME280;56427;51.580;4.656;2022-11-20T04:22:45;101173.38;;;0.28;100.00
69306;BME280;56427;51.580;4.656;2022-11-20T04:25:11;101161.47;;;0.52;100.00
69306;BME280;56427;51.580;4.656;2022-11-20T04:27:36;101167.38;;;0.29;100.00
69306;BME280;56427;51.580;4.656;2022-11-20T04:30:01;101163.22;;;0.26;100.00
69306;BME280;56427;51.580;4.656;2022-11-20T04:32:27;101160.44;;;0.32;100.00
69306;BME280;56427;51.580;4.656;2022-11-20T04:34:52;101163.16;;;0.28;100.00
69306;BME280;56427;51.580;4.656;2022-11-20T04:37:17;101159.50;;;0.10;100.00
69306;BME280;56427;51.580;4.656;2022-11-20T04:39:42;101163.78;;;0.09;100.00
69306;BME280;56427;51.580;4.656;2022-11-20T04:42:09;101168.81;;;-0.13;100.00
69306;BME280;56427;51.580;4.656;2022-11-20T04:44:53;101156.47;;;-0.27;100.00
69306;BME280;56427;51.580;4.656;2022-11-20T04:47:18;101173.69;;;0.18;100.00
69306;BME280;56427;51.580;4.656;2022-11-20T04:49:44;101166.97;;;-0.09;100.00
69306;BME280;56427;51.580;4.656;2022-11-20T04:52:09;101168.84;;;-0.14;100.00
69306;BME280;56427;51.580;4.656;2022-11-20T04:54:34;101162.06;;;-0.15;100.00
69306;BME280;56427;51.580;4.656;2022-11-20T04:56:59;101147.75;;;-0.20;100.00
69306;BME280;56427;51.580;4.656;2022-11-20T04:59:25;101156.25;;;-0.19;100.00
69306;BME280;56427;51.580;4.656;2022-11-20T05:01:50;101152.09;;;-0.23;100.00
69306;BME280;56427;51.580;4.656;2022-11-20T05:04:15;101153.66;;;-0.44;100.00
69306;BME280;56427;51.580;4.656;2022-11-20T05:06:41;101147.22;;;-0.56;100.00
69306;BME280;56427;51.580;4.656;2022-11-20T05:09:06;101151.53;;;-0.31;100.00
69306;BME280;56427;51.580;4.656;2022-11-20T05:11:31;101158.00;;;-0.48;100.00
69306;BME280;56427;51.580;4.656;2022-11-20T05:13:58;101151.84;;;-0.41;100.00
69306;BME280;56427;51.580;4.656;2022-11-20T05:16:24;101154.47;;;-0.44;100.00
69306;BME280;56427;51.580;4.656;2022-11-20T05:18:50;101151.03;;;-0.41;100.00
69306;BME280;56427;51.580;4.656;2022-11-20T05:21:17;101158.25;;;-0.56;100.00
69306;BME280;56427;51.580;4.656;2022-11-20T05:23:43;101159.31;;;-0.63;100.00
69306;BME280;56427;51.580;4.656;2022-11-20T05:26:14;101161.69;;;-0.57;100.00
69306;BME280;56427;51.580;4.656;2022-11-20T05:28:39;101168.50;;;-0.57;100.00
69306;BME280;56427;51.580;4.656;2022-11-20T05:31:10;101166.88;;;-0.60;100.00
69306;BME280;56427;51.580;4.656;2022-11-20T05:33:36;101172.78;;;-0.58;100.00
69306;BME280;56427;51.580;4.656;2022-11-20T05:36:03;101180.44;;;-0.58;100.00
69306;BME280;56427;51.580;4.656;2022-11-20T05:38:29;101165.19;;;-0.59;100.00
69306;BME280;56427;51.580;4.656;2022-11-20T05:40:54;101173.78;;;-0.63;100.00
69306;BME280;56427;51.580;4.656;2022-11-20T05:43:20;101162.47;;;-0.54;100.00
69306;BME280;56427;51.580;4.656;2022-11-20T05:45:52;101165.41;;;-0.40;100.00
69306;BME280;56427;51.580;4.656;2022-11-20T05:48:18;101159.25;;;-0.33;100.00
69306;BME280;56427;51.580;4.656;2022-11-20T05:50:44;101159.72;;;-0.48;100.00
69306;BME280;56427;51.580;4.656;2022-11-20T05:53:09;101143.66;;;-0.50;100.00
69306;BME280;56427;51.580;4.656;2022-11-20T05:55:34;101145.25;;;-0.48;100.00
69306;BME280;56427;51.580;4.656;2022-11-20T05:57:59;101119.03;;;-0.51;100.00
69306;BME280;56427;51.580;4.656;2022-11-20T06:00:25;101135.13;;;-0.49;100.00
69306;BME280;56427;51.580;4.656;2022-11-20T06:02:50;101129.72;;;-0.40;100.00
69306;BME280;56427;51.580;4.656;2022-11-20T06:05:15;101132.50;;;-0.48;100.00
69306;BME280;56427;51.580;4.656;2022-11-20T06:07:41;101133.59;;;-0.55;100.00
69306;BME280;56427;51.580;4.656;2022-11-20T06:10:06;101119.41;;;-0.90;100.00
69306;BME280;56427;51.580;4.656;2022-11-20T06:12:32;101131.69;;;-0.75;100.00
69306;BME280;56427;51.580;4.656;2022-11-20T06:14:58;101120.16;;;-0.87;100.00
69306;BME280;56427;51.580;4.656;2022-11-20T06:17:23;101120.34;;;-0.93;100.00
69306;BME280;56427;51.580;4.656;2022-11-20T06:19:48;101123.84;;;-0.97;100.00
69306;BME280;56427;51.580;4.656;2022-11-20T06:22:14;101114.81;;;-1.07;100.00
69306;BME280;56427;51.580;4.656;2022-11-20T06:24:39;101124.00;;;-1.02;100.00
69306;BME280;56427;51.580;4.656;2022-11-20T06:27:04;101126.28;;;-1.22;100.00
69306;BME280;56427;51.580;4.656;2022-11-20T06:29:29;101120.03;;;-1.12;100.00
69306;BME280;56427;51.580;4.656;2022-11-20T06:31:55;101116.16;;;-1.24;100.00
69306;BME280;56427;51.580;4.656;2022-11-20T06:34:20;101118.56;;;-1.19;100.00
69306;BME280;56427;51.580;4.656;2022-11-20T06:36:45;101125.38;;;-1.20;100.00
69306;BME280;56427;51.580;4.656;2022-11-20T06:39:11;101124.09;;;-1.33;100.00
69306;BME280;56427;51.580;4.656;2022-11-20T06:41:36;101124.44;;;-1.17;100.00
69306;BME280;56427;51.580;4.656;2022-11-20T06:44:04;101120.09;;;-1.14;100.00
69306;BME280;56427;51.580;4.656;2022-11-20T06:46:29;101115.75;;;-1.10;100.00
69306;BME280;56427;51.580;4.656;2022-11-20T06:48:54;101109.97;;;-1.15;100.00
69306;BME280;56427;51.580;4.656;2022-11-20T06:51:20;101114.50;;;-1.25;100.00
69306;BME280;56427;51.580;4.656;2022-11-20T06:53:46;101122.28;;;-1.01;100.00
69306;BME280;56427;51.580;4.656;2022-11-20T06:56:11;101111.34;;;-1.05;100.00
69306;BME280;56427;51.580;4.656;2022-11-20T06:58:37;101114.47;;;-1.23;100.00
69306;BME280;56427;51.580;4.656;2022-11-20T07:01:08;101114.16;;;-1.14;100.00
69306;BME280;56427;51.580;4.656;2022-11-20T07:03:35;101116.09;;;-0.94;100.00
69306;BME280;56427;51.580;4.656;2022-11-20T07:06:01;101123.06;;;-0.99;100.00
69306;BME280;56427;51.580;4.656;2022-11-20T07:08:27;101120.13;;;-0.85;100.00
69306;BME280;56427;51.580;4.656;2022-11-20T07:10:57;101114.81;;;-0.79;100.00
69306;BME280;56427;51.580;4.656;2022-11-20T07:13:25;101108.97;;;-0.56;100.00
69306;BME280;56427;51.580;4.656;2022-11-20T07:15:51;101117.88;;;-0.16;100.00
69306;BME280;56427;51.580;4.656;2022-11-20T07:18:19;101113.75;;;-0.20;100.00
69306;BME280;56427;51.580;4.656;2022-11-20T07:20:44;101102.97;;;-0.28;100.00
69306;BME280;56427;51.580;4.656;2022-11-20T07:23:09;101100.06;;;-0.17;100.00
69306;BME280;56427;51.580;4.656;2022-11-20T07:25:34;101103.38;;;-0.41;100.00
69306;BME280;56427;51.580;4.656;2022-11-20T07:28:00;101105.63;;;-0.31;100.00
69306;BME280;56427;51.580;4.656;2022-11-20T07:30:27;101115.91;;;-0.33;100.00
69306;BME280;56427;51.580;4.656;2022-11-20T07:32:53;101104.03;;;-0.34;100.00
69306;BME280;56427;51.580;4.656;2022-11-20T07:35:19;101120.47;;;-0.43;100.00
69306;BME280;56427;51.580;4.656;2022-11-20T07:37:44;101113.66;;;-0.17;100.00
69306;BME280;56427;51.580;4.656;2022-11-20T07:40:14;101107.91;;;-0.24;100.00
69306;BME280;56427;51.580;4.656;2022-11-20T07:42:50;101117.91;;;0.08;100.00
69306;BME280;56427;51.580;4.656;2022-11-20T07:45:17;101119.81;;;-0.23;100.00
69306;BME280;56427;51.580;4.656;2022-11-20T07:47:42;101117.09;;;-0.18;100.00
69306;BME280;56427;51.580;4.656;2022-11-20T07:50:08;101126.06;;;-0.06;100.00
69306;BME280;56427;51.580;4.656;2022-11-20T07:52:33;101132.84;;;-0.07;100.00
69306;BME280;56427;51.580;4.656;2022-11-20T07:54:58;101126.66;;;0.01;100.00
69306;BME280;56427;51.580;4.656;2022-11-20T07:57:23;101121.81;;;-0.07;100.00
69306;BME280;56427;51.580;4.656;2022-11-20T07:59:49;101124.34;;;0.18;100.00
69306;BME280;56427;51.580;4.656;2022-11-20T08:02:14;101128.56;;;0.19;100.00
69306;BME280;56427;51.580;4.656;2022-11-20T08:04:42;101114.94;;;0.44;100.00
69306;BME280;56427;51.580;4.656;2022-11-20T08:07:08;101123.22;;;0.27;100.00
69306;BME280;56427;51.580;4.656;2022-11-20T08:09:33;101128.38;;;0.49;100.00
69306;BME280;56427;51.580;4.656;2022-11-20T08:11:58;101126.47;;;0.54;100.00
69306;BME280;56427;51.580;4.656;2022-11-20T08:14:42;101131.13;;;0.43;100.00
69306;BME280;56427;51.580;4.656;2022-11-20T08:17:07;101130.19;;;0.22;100.00
69306;BME280;56427;51.580;4.656;2022-11-20T08:19:33;101127.47;;;0.26;100.00
69306;BME280;56427;51.580;4.656;2022-11-20T08:21:58;101120.38;;;0.58;100.00
69306;BME280;56427;51.580;4.656;2022-11-20T08:24:23;101113.75;;;0.52;100.00
69306;BME280;56427;51.580;4.656;2022-11-20T08:26:49;101116.03;;;0.60;100.00
69306;BME280;56427;51.580;4.656;2022-11-20T08:29:15;101104.44;;;0.51;100.00
69306;BME280;56427;51.580;4.656;2022-11-20T08:31:40;101106.00;;;0.55;100.00
69306;BME280;56427;51.580;4.656;2022-11-20T08:34:05;101106.09;;;0.76;100.00
69306;BME280;56427;51.580;4.656;2022-11-20T08:36:33;101106.03;;;0.78;100.00
69306;BME280;56427;51.580;4.656;2022-11-20T08:38:59;101107.72;;;1.01;100.00
69306;BME280;56427;51.580;4.656;2022-11-20T08:41:24;101103.59;;;1.19;100.00
69306;BME280;56427;51.580;4.656;2022-11-20T08:43:57;101098.31;;;0.79;100.00
69306;BME280;56427;51.580;4.656;2022-11-20T08:46:27;101092.84;;;0.88;100.00
69306;BME280;56427;51.580;4.656;2022-11-20T08:48:53;101092.19;;;0.83;100.00
69306;BME280;56427;51.580;4.656;2022-11-20T08:51:19;101101.75;;;1.00;100.00
69306;BME280;56427;51.580;4.656;2022-11-20T08:53:45;101104.38;;;1.21;100.00
69306;BME280;56427;51.580;4.656;2022-11-20T08:56:12;101098.31;;;1.23;100.00
69306;BME280;56427;51.580;4.656;2022-11-20T08:58:38;101086.81;;;1.12;100.00
69306;BME280;56427;51.580;4.656;2022-11-20T09:01:04;101072.00;;;1.20;100.00
69306;BME280;56427;51.580;4.656;2022-11-20T09:03:32;101072.81;;;1.22;100.00
69306;BME280;56427;51.580;4.656;2022-11-20T09:06:04;101067.59;;;1.03;100.00
69306;BME280;56427;51.580;4.656;2022-11-20T09:08:30;101073.50;;;1.46;100.00
69306;BME280;56427;51.580;4.656;2022-11-20T09:10:56;101063.94;;;1.72;100.00
69306;BME280;56427;51.580;4.656;2022-11-20T09:13:23;101063.28;;;1.46;100.00
69306;BME280;56427;51.580;4.656;2022-11-20T09:16:05;101055.94;;;1.38;100.00
69306;BME280;56427;51.580;4.656;2022-11-20T09:18:32;101052.63;;;1.57;100.00
69306;BME280;56427;51.580;4.656;2022-11-20T09:21:02;101033.78;;;1.78;100.00
69306;BME280;56427;51.580;4.656;2022-11-20T09:23:32;101034.75;;;1.76;100.00
69306;BME280;56427;51.580;4.656;2022-11-20T09:26:02;101034.25;;;1.47;100.00
69306;BME280;56427;51.580;4.656;2022-11-20T09:28:27;101034.66;;;1.58;100.00
69306;BME280;56427;51.580;4.656;2022-11-20T09:30:53;101021.56;;;1.85;100.00
69306;BME280;56427;51.580;4.656;2022-11-20T09:33:20;101017.19;;;1.87;100.00
69306;BME280;56427;51.580;4.656;2022-11-20T09:35:46;101007.88;;;1.86;100.00
69306;BME280;56427;51.580;4.656;2022-11-20T09:38:11;101017.16;;;2.08;100.00
69306;BME280;56427;51.580;4.656;2022-11-20T09:41:01;101014.50;;;1.90;100.00
69306;BME280;56427;51.580;4.656;2022-11-20T09:46:29;101001.78;;;1.89;100.00
69306;BME280;56427;51.580;4.656;2022-11-20T09:54:45;100997.50;;;2.08;100.00
69306;BME280;56427;51.580;4.656;2022-11-20T09:57:34;100981.50;;;1.84;100.00
69306;BME280;56427;51.580;4.656;2022-11-20T10:00:02;100982.72;;;1.96;100.00
69306;BME280;56427;51.580;4.656;2022-11-20T10:02:48;100969.28;;;2.10;100.00
69306;BME280;56427;51.580;4.656;2022-11-20T10:05:29;100981.78;;;1.97;100.00
69306;BME280;56427;51.580;4.656;2022-11-20T10:10:45;100969.81;;;2.35;100.00
69306;BME280;56427;51.580;4.656;2022-11-20T10:21:23;100959.44;;;2.56;100.00
69306;BME280;56427;51.580;4.656;2022-11-20T10:29:47;100938.00;;;2.39;100.00
69306;BME280;56427;51.580;4.656;2022-11-20T10:32:19;100942.88;;;2.63;100.00
69306;BME280;56427;51.580;4.656;2022-11-20T10:34:52;100944.81;;;2.58;100.00
69306;BME280;56427;51.580;4.656;2022-11-20T10:37:25;100935.41;;;2.76;100.00
69306;BME280;56427;51.580;4.656;2022-11-20T10:42:31;100915.97;;;2.89;100.00
69306;BME280;56427;51.580;4.656;2022-11-20T10:47:40;100900.03;;;3.18;100.00
69306;BME280;56427;51.580;4.656;2022-11-20T10:50:11;100910.69;;;3.10;100.00
69306;BME280;56427;51.580;4.656;2022-11-20T10:55:28;100905.25;;;3.32;100.00
69306;BME280;56427;51.580;4.656;2022-11-20T10:58:09;100897.41;;;3.02;100.00
69306;BME280;56427;51.580;4.656;2022-11-20T11:00:36;100880.50;;;2.98;100.00
69306;BME280;56427;51.580;4.656;2022-11-20T11:03:02;100867.44;;;2.86;100.00
69306;BME280;56427;51.580;4.656;2022-11-20T11:05:50;100875.75;;;3.07;100.00
69306;BME280;56427;51.580;4.656;2022-11-20T11:08:19;100867.81;;;3.12;100.00
69306;BME280;56427;51.580;4.656;2022-11-20T11:11:07;100843.50;;;2.86;100.00
69306;BME280;56427;51.580;4.656;2022-11-20T11:13:35;100850.47;;;3.17;100.00
69306;BME280;56427;51.580;4.656;2022-11-20T11:16:00;100844.22;;;3.05;100.00
69306;BME280;56427;51.580;4.656;2022-11-20T11:18:28;100840.34;;;3.14;100.00
69306;BME280;56427;51.580;4.656;2022-11-20T11:21:01;100833.09;;;3.22;100.00
69306;BME280;56427;51.580;4.656;2022-11-20T11:23:35;100832.84;;;3.11;100.00
69306;BME280;56427;51.580;4.656;2022-11-20T11:26:04;100826.66;;;3.31;100.00
69306;BME280;56427;51.580;4.656;2022-11-20T11:28:30;100819.22;;;3.26;100.00
69306;BME280;56427;51.580;4.656;2022-11-20T11:30:55;100808.72;;;3.31;100.00
69306;BME280;56427;51.580;4.656;2022-11-20T11:33:29;100810.53;;;3.45;100.00
69306;BME280;56427;51.580;4.656;2022-11-20T11:36:00;100802.53;;;3.97;100.00
69306;BME280;56427;51.580;4.656;2022-11-20T11:38:38;100794.25;;;3.62;100.00
69306;BME280;56427;51.580;4.656;2022-11-20T11:41:28;100789.28;;;3.59;100.00
69306;BME280;56427;51.580;4.656;2022-11-20T11:47:04;100787.06;;;3.99;100.00
69306;BME280;56427;51.580;4.656;2022-11-20T11:49:31;100773.59;;;3.63;100.00
69306;BME280;56427;51.580;4.656;2022-11-20T11:52:17;100782.47;;;4.04;100.00
69306;BME280;56427;51.580;4.656;2022-11-20T12:00:12;100753.97;;;3.78;100.00
69306;BME280;56427;51.580;4.656;2022-11-20T12:05:30;100729.34;;;3.90;100.00
69306;BME280;56427;51.580;4.656;2022-11-20T12:08:18;100733.84;;;3.86;100.00
69306;BME280;56427;51.580;4.656;2022-11-20T12:16:14;100726.34;;;4.42;100.00
69306;BME280;56427;51.580;4.656;2022-11-20T12:18:42;100713.47;;;4.28;100.00
69306;BME280;56427;51.580;4.656;2022-11-20T12:21:31;100713.28;;;4.46;100.00
69306;BME280;56427;51.580;4.656;2022-11-20T12:26:59;100698.41;;;4.22;100.00
69306;BME280;56427;51.580;4.656;2022-11-20T12:29:58;100701.25;;;4.17;100.00
69306;BME280;56427;51.580;4.656;2022-11-20T12:53:07;100632.34;;;4.67;100.00
69306;BME280;56427;51.580;4.656;2022-11-20T12:55:47;100646.91;;;4.67;100.00
69306;BME280;56427;51.580;4.656;2022-11-20T13:01:55;100633.03;;;4.84;100.00
69306;BME280;56427;51.580;4.656;2022-11-20T13:07:06;100613.03;;;4.74;100.00
69306;BME280;56427;51.580;4.656;2022-11-20T13:09:35;100608.84;;;4.59;100.00
69306;BME280;56427;51.580;4.656;2022-11-20T13:14:47;100601.22;;;4.57;100.00
69306;BME280;56427;51.580;4.656;2022-11-20T13:17:21;100587.63;;;4.55;100.00
69306;BME280;56427;51.580;4.656;2022-11-20T13:19:52;100571.56;;;4.52;100.00
69306;BME280;56427;51.580;4.656;2022-11-20T13:22:26;100575.19;;;4.49;100.00
69306;BME280;56427;51.580;4.656;2022-11-20T13:24:52;100567.41;;;4.64;100.00
69306;BME280;56427;51.580;4.656;2022-11-20T13:27:20;100574.03;;;4.53;100.00
69306;BME280;56427;51.580;4.656;2022-11-20T13:30:13;100587.88;;;4.65;100.00
69306;BME280;56427;51.580;4.656;2022-11-20T13:35:25;100547.25;;;4.57;100.00
69306;BME280;56427;51.580;4.656;2022-11-20T13:38:00;100560.88;;;4.72;100.00
69306;BME280;56427;51.580;4.656;2022-11-20T13:40:26;100566.94;;;4.71;100.00
69306;BME280;56427;51.580;4.656;2022-11-20T13:43:04;100564.72;;;4.79;100.00
69306;BME280;56427;51.580;4.656;2022-11-20T13:45:32;100535.56;;;4.66;100.00
69306;BME280;56427;51.580;4.656;2022-11-20T13:48:02;100538.31;;;4.90;100.00
69306;BME280;56427;51.580;4.656;2022-11-20T13:53:25;100514.00;;;4.69;100.00
69306;BME280;56427;51.580;4.656;2022-11-20T13:56:05;100501.41;;;4.64;100.00
69306;BME280;56427;51.580;4.656;2022-11-20T14:01:21;100490.44;;;4.75;100.00
69306;BME280;56427;51.580;4.656;2022-11-20T14:03:48;100489.22;;;4.81;100.00
69306;BME280;56427;51.580;4.656;2022-11-20T14:06:31;100475.88;;;4.88;100.00
69306;BME280;56427;51.580;4.656;2022-11-20T14:08:58;100455.06;;;4.78;100.00
69306;BME280;56427;51.580;4.656;2022-11-20T14:11:29;100454.75;;;4.70;100.00
69306;BME280;56427;51.580;4.656;2022-11-20T14:16:35;100438.34;;;4.86;100.00
69306;BME280;56427;51.580;4.656;2022-11-20T14:21:45;100460.75;;;4.96;100.00
69306;BME280;56427;51.580;4.656;2022-11-20T14:24:12;100460.56;;;5.00;100.00
69306;BME280;56427;51.580;4.656;2022-11-20T14:26:41;100451.22;;;4.98;100.00
69306;BME280;56427;51.580;4.656;2022-11-20T14:29:19;100444.22;;;5.01;100.00
69306;BME280;56427;51.580;4.656;2022-11-20T14:31:45;100450.78;;;5.05;100.00
69306;BME280;56427;51.580;4.656;2022-11-20T14:34:20;100440.31;;;5.21;100.00
69306;BME280;56427;51.580;4.656;2022-11-20T14:36:47;100432.47;;;4.96;100.00